createdAt,value
2022-12-23T00:01:29.036Z,9.70
2022-12-23T00:04:00.025Z,9.70
2022-12-23T00:08:59.366Z,9.70
2022-12-23T00:11:31.111Z,9.70
2022-12-23T00:14:21.482Z,9.70
2022-12-23T00:16:52.082Z,9.70
2022-12-23T00:19:20.579Z,9.70
2022-12-23T00:34:13.911Z,9.70
2022-12-23T00:39:31.506Z,9.70
2022-12-23T00:50:07.047Z,9.70
2022-12-23T01:00:01.480Z,9.60
2022-12-23T01:05:37.539Z,9.70
2022-12-23T01:08:07.170Z,9.70
2022-12-23T01:20:31.954Z,9.70
2022-12-23T01:23:00.562Z,9.70
2022-12-23T01:27:57.595Z,9.70
2022-12-23T01:35:23.326Z,9.80
2022-12-23T01:37:53.212Z,9.80
2022-12-23T01:45:20.549Z,9.80
2022-12-23T01:47:56.784Z,9.90
2022-12-23T01:50:29.728Z,9.80
2022-12-23T01:55:44.279Z,9.80
2022-12-23T01:58:18.357Z,9.80
2022-12-23T02:06:46.659Z,9.80
2022-12-23T02:09:18.890Z,9.80
2022-12-23T02:12:21.480Z,9.30
2022-12-23T02:15:34.255Z,9.80
2022-12-23T02:18:18.399Z,9.90
2022-12-23T02:21:21.713Z,9.90
2022-12-23T02:24:43.939Z,9.80
2022-12-23T02:27:20.036Z,9.90
2022-12-23T02:30:27.533Z,9.90
2022-12-23T02:33:30.980Z,9.90
2022-12-23T02:36:15.041Z,9.90
2022-12-23T02:38:54.044Z,9.90
2022-12-23T02:41:33.815Z,9.90
2022-12-23T02:44:11.942Z,9.90
2022-12-23T02:46:47.711Z,9.90
2022-12-23T02:49:22.909Z,9.80
2022-12-23T02:51:55.737Z,9.80
2022-12-23T02:54:30.605Z,9.80
2022-12-23T02:57:01.592Z,9.80
2022-12-23T02:59:35.235Z,9.70
2022-12-23T03:02:05.010Z,9.70
2022-12-23T03:09:48.043Z,9.70
2022-12-23T03:12:30.366Z,9.70
2022-12-23T03:15:19.410Z,9.70
2022-12-23T03:18:06.190Z,9.70
2022-12-23T03:20:45.013Z,9.70
2022-12-23T03:23:23.847Z,8.80
2022-12-23T03:26:03.283Z,9.70
2022-12-23T03:28:40.457Z,9.70
2022-12-23T03:31:17.071Z,9.60
2022-12-23T03:36:25.534Z,9.60
2022-12-23T03:38:56.878Z,9.50
2022-12-23T03:41:32.335Z,9.50
2022-12-23T03:44:06.517Z,9.40
2022-12-23T03:46:41.128Z,9.40
2022-12-23T03:49:16.027Z,9.40
2022-12-23T03:51:53.840Z,9.40
2022-12-23T03:54:28.328Z,9.40
2022-12-23T03:57:03.393Z,9.40
2022-12-23T03:59:35.587Z,9.30
2022-12-23T04:02:11.695Z,9.30
2022-12-23T04:05:01.776Z,9.20
2022-12-23T04:12:33.855Z,9.20
2022-12-23T04:15:07.440Z,9.10
2022-12-23T04:17:39.089Z,9.10
2022-12-23T04:20:12.364Z,9.10
2022-12-23T04:22:43.423Z,9.00
2022-12-23T04:27:40.764Z,9.00
2022-12-23T04:30:13.672Z,9.00
2022-12-23T04:35:13.194Z,9.00
2022-12-23T04:40:10.917Z,9.10
2022-12-23T04:45:09.276Z,9.10
2022-12-23T04:50:07.656Z,9.20
2022-12-23T04:52:37.220Z,9.20
2022-12-23T04:57:34.983Z,9.20
2022-12-23T05:00:04.016Z,9.20
2022-12-23T05:10:01.888Z,9.30
2022-12-23T05:27:23.401Z,9.40
2022-12-23T05:44:48.909Z,9.40
2022-12-23T06:02:10.057Z,9.60
2022-12-23T06:14:33.051Z,9.60
2022-12-23T06:17:01.421Z,9.70
2022-12-23T06:19:31.148Z,9.70
2022-12-23T06:31:55.358Z,9.80
2022-12-23T06:36:53.471Z,9.90
2022-12-23T06:49:16.030Z,9.80
2022-12-23T06:54:14.439Z,9.80
2022-12-23T07:04:10.240Z,9.70
2022-12-23T07:11:37.827Z,9.60
2022-12-23T07:14:06.150Z,9.50
2022-12-23T07:28:59.063Z,9.40
2022-12-23T07:33:56.909Z,9.40
2022-12-23T07:43:51.875Z,9.40
2022-12-23T07:46:21.482Z,9.50
2022-12-23T07:53:51.059Z,9.50
2022-12-23T07:58:50.306Z,9.60
2022-12-23T08:01:19.922Z,9.60
2022-12-23T08:03:50.010Z,9.70
2022-12-23T08:08:48.401Z,9.80
2022-12-23T08:11:17.832Z,9.80
2022-12-23T08:13:48.218Z,9.80
2022-12-23T08:21:19.027Z,10.10
2022-12-23T08:23:48.344Z,10.00
2022-12-23T08:26:19.041Z,10.10
2022-12-23T08:28:47.775Z,10.10
2022-12-23T08:33:49.020Z,10.20
2022-12-23T08:36:23.408Z,10.30
2022-12-23T08:41:25.355Z,10.20
2022-12-23T08:46:22.933Z,10.40
2022-12-23T08:48:52.073Z,10.40
2022-12-23T08:51:23.799Z,10.40
2022-12-23T08:56:32.651Z,10.50
2022-12-23T08:59:01.419Z,10.50
2022-12-23T09:01:32.081Z,10.50
2022-12-23T09:06:36.556Z,10.50
2022-12-23T09:09:06.625Z,10.60
2022-12-23T09:14:04.755Z,10.60
2022-12-23T09:21:31.978Z,10.70
2022-12-23T09:26:31.715Z,10.70
2022-12-23T09:36:36.003Z,10.70
2022-12-23T09:42:01.631Z,10.80
2022-12-23T09:44:59.646Z,10.80
2022-12-23T09:47:30.679Z,10.80
2022-12-23T09:50:04.193Z,10.80
2022-12-23T09:52:45.515Z,10.80
2022-12-23T09:55:16.089Z,10.70
2022-12-23T09:57:58.573Z,10.60
2022-12-23T10:00:27.363Z,10.60
2022-12-23T10:03:16.144Z,10.60
2022-12-23T10:05:57.162Z,10.60
2022-12-23T10:08:34.240Z,10.60
2022-12-23T10:11:07.745Z,10.60
2022-12-23T10:13:40.973Z,10.60
2022-12-23T10:16:16.663Z,10.60
2022-12-23T10:18:54.475Z,10.60
2022-12-23T10:21:31.315Z,10.70
2022-12-23T10:24:08.334Z,11.60
2022-12-23T10:26:46.803Z,10.70
2022-12-23T10:29:19.999Z,10.70
2022-12-23T10:32:07.394Z,10.70
2022-12-23T10:34:49.903Z,10.70
2022-12-23T10:37:29.204Z,10.70
2022-12-23T10:40:12.797Z,10.70
2022-12-23T10:42:46.923Z,10.70
2022-12-23T10:45:35.909Z,10.70
2022-12-23T10:48:28.025Z,10.70
2022-12-23T10:51:02.478Z,10.80
2022-12-23T10:53:38.216Z,10.80
2022-12-23T10:56:09.325Z,10.80
2022-12-23T10:58:41.712Z,10.80
2022-12-23T11:01:20.316Z,10.80
2022-12-23T11:04:05.452Z,10.70
2022-12-23T11:06:39.325Z,10.70
2022-12-23T11:11:58.930Z,10.70
2022-12-23T11:14:38.124Z,10.70
2022-12-23T11:17:18.386Z,10.60
2022-12-23T11:22:25.956Z,10.60
2022-12-23T11:27:24.416Z,10.60
2022-12-23T11:29:55.889Z,10.60
2022-12-23T11:32:27.437Z,10.70
2022-12-23T11:34:56.950Z,10.70
2022-12-23T11:37:33.258Z,10.70
2022-12-23T11:42:34.475Z,10.70
2022-12-23T11:47:40.999Z,10.70
2022-12-23T11:50:35.372Z,10.70
2022-12-23T11:53:15.573Z,10.80
2022-12-23T11:55:57.536Z,10.80
2022-12-23T11:58:29.813Z,10.80
2022-12-23T12:01:00.603Z,10.80
2022-12-23T12:03:34.867Z,10.80
2022-12-23T12:06:06.744Z,10.80
2022-12-23T12:08:39.426Z,10.80
2022-12-23T12:11:14.459Z,10.80
2022-12-23T12:13:48.774Z,10.80
2022-12-23T12:16:35.878Z,10.80
2022-12-23T12:19:11.605Z,10.90
2022-12-23T12:24:19.281Z,10.80
2022-12-23T12:26:52.826Z,10.90
2022-12-23T12:29:28.445Z,10.90
2022-12-23T12:32:01.053Z,10.90
2022-12-23T12:34:39.657Z,10.90
2022-12-23T12:37:22.838Z,10.90
2022-12-23T12:39:57.095Z,10.80
2022-12-23T12:42:31.254Z,10.90
2022-12-23T12:45:19.312Z,11.00
2022-12-23T12:48:16.027Z,10.90
2022-12-23T12:50:57.376Z,11.00
2022-12-23T12:53:27.374Z,10.90
2022-12-23T12:56:03.645Z,11.00
2022-12-23T12:58:32.091Z,11.00
2022-12-23T13:01:19.156Z,11.00
2022-12-23T13:04:27.152Z,11.10
2022-12-23T13:07:07.384Z,11.10
2022-12-23T13:09:50.711Z,11.20
2022-12-23T13:12:25.848Z,11.20
2022-12-23T13:15:04.379Z,11.20
2022-12-23T13:17:45.286Z,11.20
2022-12-23T13:20:25.646Z,11.30
2022-12-23T13:23:27.115Z,11.30
2022-12-23T13:25:59.998Z,11.30
2022-12-23T13:28:38.591Z,11.40
2022-12-23T13:31:17.520Z,11.40
2022-12-23T13:33:56.845Z,11.40
2022-12-23T13:36:45.885Z,11.50
2022-12-23T13:39:31.735Z,11.50
2022-12-23T13:42:06.003Z,11.50
2022-12-23T13:44:36.273Z,11.50
2022-12-23T13:47:16.060Z,11.50
2022-12-23T13:50:00.976Z,11.50
2022-12-23T13:52:51.507Z,11.60
2022-12-23T13:55:48.238Z,11.60
2022-12-23T13:58:19.456Z,11.60
2022-12-23T14:00:57.432Z,12.50
2022-12-23T14:03:33.113Z,11.70
2022-12-23T14:06:29.968Z,11.70
2022-12-23T14:11:29.494Z,11.70
2022-12-23T14:14:01.511Z,11.80
2022-12-23T14:16:46.981Z,11.80
2022-12-23T14:19:42.803Z,11.80
2022-12-23T14:22:38.509Z,11.90
2022-12-23T14:26:01.268Z,11.90
2022-12-23T14:28:52.439Z,11.90
2022-12-23T14:31:39.717Z,11.90
2022-12-23T14:34:31.479Z,11.90
2022-12-23T14:37:36.991Z,11.90
2022-12-23T14:40:55.356Z,11.90
2022-12-23T14:43:54.819Z,12.00
2022-12-23T14:46:58.172Z,12.00
2022-12-23T14:49:47.712Z,12.00
2022-12-23T14:52:50.543Z,12.10
2022-12-23T14:55:44.748Z,12.10
2022-12-23T14:58:51.930Z,12.10
2022-12-23T15:01:28.099Z,12.20
2022-12-23T15:06:37.130Z,12.20
2022-12-23T15:09:08.642Z,12.30
2022-12-23T15:11:38.004Z,12.20
2022-12-23T15:14:15.499Z,12.30
2022-12-23T15:19:23.555Z,12.30
2022-12-23T15:22:15.303Z,12.20
2022-12-23T15:27:28.786Z,12.30
2022-12-23T15:29:58.622Z,12.30
2022-12-23T15:32:29.354Z,12.20
2022-12-23T15:35:03.350Z,14.90
2022-12-23T15:37:33.057Z,12.30
2022-12-23T15:40:12.212Z,12.30
2022-12-23T15:45:37.022Z,12.30
2022-12-23T15:48:07.559Z,12.30
2022-12-23T15:50:40.538Z,12.30
2022-12-23T15:53:17.141Z,12.30
2022-12-23T15:55:49.717Z,12.30
2022-12-23T15:58:23.620Z,12.30
2022-12-23T16:03:29.198Z,12.30
2022-12-23T16:06:17.247Z,12.40
2022-12-23T16:08:46.828Z,12.40
2022-12-23T16:11:19.824Z,12.30
2022-12-23T16:14:00.242Z,12.30
2022-12-23T16:16:38.098Z,12.30
2022-12-23T16:21:37.901Z,12.40
2022-12-23T16:24:09.862Z,12.30
2022-12-23T16:39:22.716Z,12.40
2022-12-23T16:41:52.506Z,12.30
2022-12-23T16:46:52.284Z,12.50
2022-12-23T16:49:26.756Z,12.40
2022-12-23T16:54:28.373Z,12.50
2022-12-23T16:56:58.336Z,12.50
2022-12-23T17:11:58.655Z,12.50
2022-12-23T17:16:56.059Z,12.50
2022-12-23T17:22:04.354Z,12.50
2022-12-23T17:27:02.664Z,12.50
2022-12-23T17:44:25.186Z,12.80
2022-12-23T17:54:25.056Z,12.70
2022-12-23T17:56:53.688Z,12.80
2022-12-23T17:59:22.484Z,12.80
2022-12-23T18:01:52.428Z,12.80
2022-12-23T18:06:49.968Z,12.80
2022-12-23T18:11:48.546Z,12.90
2022-12-23T18:14:20.979Z,12.80
2022-12-23T18:19:22.047Z,12.80
2022-12-23T18:21:51.126Z,12.80
2022-12-23T18:24:19.670Z,12.80
2022-12-23T18:31:51.943Z,12.80
2022-12-23T18:34:22.480Z,12.70
2022-12-23T18:36:52.488Z,12.40
2022-12-23T18:44:20.884Z,12.60
2022-12-23T18:46:50.551Z,12.60
2022-12-23T18:51:49.090Z,12.50
2022-12-23T18:54:18.034Z,12.50
2022-12-23T18:56:46.780Z,12.50
2022-12-23T18:59:21.432Z,12.50
2022-12-23T19:04:24.759Z,12.50
2022-12-23T19:06:56.303Z,12.40
2022-12-23T19:11:55.093Z,12.40
2022-12-23T19:19:21.920Z,12.40
2022-12-23T19:24:20.311Z,12.40
2022-12-23T19:31:45.602Z,12.40
2022-12-23T19:34:15.764Z,12.40
2022-12-23T19:36:45.041Z,12.40
2022-12-23T19:39:16.152Z,12.40
2022-12-23T19:41:46.590Z,12.40
2022-12-23T19:51:48.514Z,12.40
2022-12-23T19:56:47.073Z,12.20
2022-12-23T20:06:43.454Z,11.80
2022-12-23T20:09:14.500Z,11.80
2022-12-23T20:14:17.364Z,11.70
2022-12-23T20:16:48.235Z,11.70
2022-12-23T20:21:46.395Z,11.60
2022-12-23T20:24:16.097Z,11.50
2022-12-23T20:26:44.919Z,11.50
2022-12-23T20:29:14.878Z,11.40
2022-12-23T20:34:17.932Z,11.40
2022-12-23T20:57:02.709Z,11.10
2022-12-23T20:59:33.063Z,11.10
2022-12-23T21:16:55.762Z,11.20
2022-12-23T21:19:26.775Z,11.20
2022-12-23T21:29:26.351Z,11.30
2022-12-23T21:31:56.351Z,11.30
2022-12-23T21:39:22.241Z,11.40
2022-12-23T21:41:52.630Z,11.40
2022-12-23T21:46:51.652Z,11.50
2022-12-23T22:04:14.182Z,11.40
2022-12-23T22:09:18.148Z,11.40
2022-12-23T22:11:48.171Z,11.30
2022-12-23T22:14:19.477Z,11.30
2022-12-23T22:16:48.095Z,11.30
2022-12-23T22:19:16.842Z,11.30
2022-12-23T22:21:46.669Z,11.30
2022-12-23T22:31:46.115Z,11.20
2022-12-23T22:39:21.157Z,11.20
2022-12-23T22:41:50.943Z,11.20
2022-12-23T22:44:20.487Z,11.20
2022-12-23T22:51:48.735Z,11.20
2022-12-23T22:56:46.796Z,11.10
2022-12-23T22:59:21.757Z,11.10
2022-12-23T23:01:51.744Z,11.10
2022-12-23T23:06:50.275Z,11.20
2022-12-23T23:09:21.705Z,11.20
2022-12-23T23:11:51.163Z,11.10
2022-12-23T23:21:50.155Z,11.10
2022-12-23T23:39:14.408Z,11.10
2022-12-23T23:56:39.382Z,11.50
